• Join FlightAware (Why Join?)
  • Login
  • US Flag 
06:49PM EDT


 

Airport Tracker/Info


-or-


 

Live Flight TrackerFlight Track Log ✈ N589H ✈ 31-Mar-2014 ✈ KPIE - TUPJ / EIS

Flight Track Log - Related Links

Times and Time Zones

All times are in EDT time to prevent confusion due to time zone crossing. See the N589H flight status page for this flight to view local times or setup timezone preferences in your user account.

Time Position Orientation Groundspeed Altitude Reporting Facility
EDT Latitude Longitude Course Direction KTS MPH feet Rate Location/Type
10:07AM 27.9333 -82.7000 330° Northwest 147 169 600  Level Tampa TRACON
10:09AM 27.9833 -82.7333 330° Northwest 181 208 3,200 1,980 Climbing Tampa TRACON
10:09AM 27.9667 -82.7667 240° Southwest 169 194 5,200 2,040 Climbing Tampa TRACON
10:10AM 27.9167 -82.7500 164° South 197 227 6,900 1,560 Climbing Tampa TRACON
10:13AM 27.7753 -82.6975 162° South 254 292 10,400 1,440 Climbing Miami Center
10:14AM 27.7211 -82.6383 136° Southeast 262 302 11,900 1,500 Climbing Miami Center
10:15AM 27.6675 -82.5747 134° Southeast 274 315 13,500 1,500 Climbing Miami Center
10:16AM 27.6114 -82.5133 136° Southeast 279 321 15,000 1,500 Climbing Miami Center
10:17AM 27.5575 -82.4500 134° Southeast 279 321 16,600 1,560 Climbing Miami Center
10:18AM 27.4978 -82.3767 133° Southeast 279 321 18,200 1,500 Climbing Miami Center
10:19AM 27.4481 -82.3136 132° Southeast 284 327 19,700 1,680 Climbing Miami Center
10:20AM 27.4003 -82.2506 130° Southeast 277 319 21,600 1,860 Climbing Miami Center
10:21AM 27.3522 -82.1969 135° Southeast 271 312 23,500 1,740 Climbing Miami Center
10:22AM 27.3192 -82.1275 118° Southeast 263 303 25,100 1,380 Climbing Miami Center
10:23AM 27.2783 -82.0464 120° Southeast 263 303 26,300 1,140 Climbing Miami Center
10:24AM 27.2500 -81.9608 110° East 279 321 27,400 840 Climbing Miami Center
10:25AM 27.2822 -81.8806 66° East 280 322 28,000 300 Climbing Miami Center
10:26AM 27.3511 -81.8183 39° Northeast 284 327 28,000  Level Miami Center
10:27AM 27.4269 -81.7350 44° Northeast 332 382 28,000  Level Miami Center
10:28AM 27.4161 -81.6222 96° East 325 374 28,000  Level Miami Center
10:29AM 27.3694 -81.5153 116° Southeast 323 372 28,000  Level Miami Center
10:30AM 27.3203 -81.4244 121° Southeast 360 414 28,000 600 Level Miami Center
10:31AM 27.2653 -81.3100 118° Southeast 375 432 29,200 1,200 Climbing Miami Center
10:32AM 27.2161 -81.2147 120° Southeast 375 432 30,400 1,140 Climbing Miami Center
10:33AM 27.1667 -81.1219 121° Southeast 359 413 31,500 1,020 Climbing Miami Center
10:34AM 27.1231 -81.0408 121° Southeast 353 406 32,500 900 Climbing Miami Center
10:35AM 27.0775 -80.9531 120° Southeast 342 394 33,300 660 Climbing Miami Center
10:36AM 27.0322 -80.8606 119° Southeast 336 387 33,900 600 Climbing Miami Center
10:37AM 26.9844 -80.7725 121° Southeast 336 387 34,600 540 Climbing Miami Center
10:38AM 26.9367 -80.6803 120° Southeast 336 387 35,000 180 Climbing Miami Center
10:39AM 26.8892 -80.5856 119° Southeast 341 392 35,000  Level Miami Center
10:40AM 26.8353 -80.4861 121° Southeast 352 405 35,000  Level Miami Center
10:41AM 26.7753 -80.3747 121° Southeast 376 433 35,000  Level Miami Center
10:42AM 26.7275 -80.2803 120° Southeast 381 438 35,000  Level Miami Center
10:43AM 26.6736 -80.1742 120° Southeast 388 447 35,000  Level Miami Center
10:44AM 26.6114 -80.0564 121° Southeast 388 447 35,000  Level Miami Center
10:45AM 26.5614 -79.9597 120° Southeast 394 453 35,000  Level Miami Center
10:46AM 26.4969 -79.8397 121° Southeast 404 465 35,000  Level Miami Center
10:47AM 26.4447 -79.7431 121° Southeast 409 471 35,000  Level Miami Center
10:48AM 26.3822 -79.6256 121° Southeast 409 471 35,000  Level Miami Center
10:49AM 26.3297 -79.5272 121° Southeast 409 471 35,000  Level Miami Center
10:50AM 26.2669 -79.4053 120° Southeast 409 471 35,000  Level Miami Center
10:51AM 26.2103 -79.2975 120° Southeast 409 471 35,000  Level Miami Center
10:52AM 26.1536 -79.1922 121° Southeast 409 471 35,000  Level Miami Center
10:53AM 26.0967 -79.0869 121° Southeast 404 465 35,000  Level Miami Center
10:54AM 26.0419 -78.9842 121° Southeast 399 459 35,000  Level Miami Center
10:55AM 25.9908 -78.8931 122° Southeast 394 453 35,000  Level Miami Center
10:56AM 25.9358 -78.7883 120° Southeast 394 453 35,000  Level Miami Center
10:57AM 25.8786 -78.6925 124° Southeast 389 448 35,000  Level Miami Center
10:58AM 25.8297 -78.5858 117° Southeast 389 448 35,000  Level Miami Center
10:59AM 25.7725 -78.4881 123° Southeast 389 448 35,000  Level Miami Center
11:00AM 25.7169 -78.3881 122° Southeast 384 442 35,000  Level Miami Center
11:01AM 25.6744 -78.2744 113° Southeast 384 442 35,000  Level Miami Center
11:02AM 25.6061 -78.1908 132° Southeast 378 435 35,000  Level Miami Center
11:03AM 25.5486 -78.0819 120° Southeast 378 435 35,000  Level Miami Center
11:04AM 25.4931 -77.9847 122° Southeast 372 428 35,000  Level Miami Center
11:05AM 25.4394 -77.8828 120° Southeast 367 422 35,000  Level Miami Center
11:06AM 25.3856 -77.7836 121° Southeast 367 422 35,000  Level Miami Center
11:07AM 25.3319 -77.6864 121° Southeast 367 422 35,000  Level Miami Center
11:08AM 25.2781 -77.5850 120° Southeast 372 428 35,000  Level Miami Center
11:09AM 25.2242 -77.4883 122° Southeast 372 428 35,000  Level Miami Center
11:10AM 25.1764 -77.3961 120° Southeast 372 428 35,000  Level Miami Center
11:11AM 25.1203 -77.2972 122° Southeast 377 434 35,000  Level Miami Center
11:12AM 25.0664 -77.1983 121° Southeast 377 434 35,000  Level Miami Center
11:13AM 25.0100 -77.0994 122° Southeast 377 434 35,000  Level Miami Center
11:14AM 24.9536 -77.0008 122° Southeast 377 434 35,000  Level Miami Center
11:15AM 24.9017 -76.9022 120° Southeast 377 434 35,000  Level Miami Center
11:16AM 24.8431 -76.8039 123° Southeast 377 434 35,000  Level Miami Center
11:17AM 24.7886 -76.7056 121° Southeast 377 434 35,000  Level Miami Center
11:18AM 24.7300 -76.6003 121° Southeast 377 434 35,000  Level Miami Center
11:19AM 24.6733 -76.4997 122° Southeast 377 434 35,000  Level Miami Center
11:20AM 24.6186 -76.3994 121° Southeast 377 434 35,000  Level Miami Center
11:21AM 24.5661 -76.3014 120° Southeast 377 434 35,000  Level Miami Center
11:22AM 24.5092 -76.2056 123° Southeast 382 440 35,000  Level Miami Center
11:23AM 24.4544 -76.1100 122° Southeast 377 434 35,000  Level Miami Center
11:24AM 24.3997 -76.0122 122° Southeast 377 434 35,000  Level Miami Center
11:25AM 24.3447 -75.9122 121° Southeast 377 434 35,000  Level Miami Center
11:26AM 24.2897 -75.8169 122° Southeast 377 434 35,000  Level Miami Center
11:27AM 24.2347 -75.7217 122° Southeast 377 434 35,000  Level Miami Center
11:28AM 24.1817 -75.6242 121° Southeast 377 434 35,000  Level Miami Center
11:29AM 24.1264 -75.5292 123° Southeast 377 434 35,000  Level Miami Center
11:30AM 24.0711 -75.4319 122° Southeast 377 434 35,000  Level Miami Center
11:31AM 24.0286 -75.3572 122° Southeast 372 428 35,000  Level Miami Center
11:32AM 23.9692 -75.2511 121° Southeast 372 428 35,000  Level Miami Center
11:33AM 23.9117 -75.1564 124° Southeast 372 428 35,000  Level Miami Center
11:34AM 23.8583 -75.0617 122° Southeast 367 422 35,000  Level Miami Center
11:35AM 23.8131 -74.9600 116° Southeast 367 422 35,000  Level Miami Center
11:36AM 23.7658 -74.8564 116° Southeast 372 428 35,000  Level Miami Center
11:37AM 23.7183 -74.7572 118° Southeast 372 428 35,000  Level Miami Center
11:38AM 23.6731 -74.6561 116° Southeast 366 421 35,000  Level Miami Center
11:39AM 23.6256 -74.5547 117° Southeast 366 421 35,000  Level Miami Center
11:40AM 23.5800 -74.4536 116° Southeast 366 421 35,000  Level Miami Center
11:41AM 23.5303 -74.3547 119° Southeast 366 421 35,000  Level Miami Center
11:42AM 23.4828 -74.2539 117° Southeast 366 421 35,000  Level Miami Center
11:43AM 23.4350 -74.1531 117° Southeast 366 421 35,000  Level Miami Center
11:44AM 23.3850 -74.0522 118° Southeast 366 421 35,000  Level Miami Center
11:45AM 23.3414 -73.9536 116° Southeast 366 421 35,000  Level Miami Center
11:46AM 23.2914 -73.8531 118° Southeast 361 415 35,000  Level Miami Center
11:47AM 23.2433 -73.7547 118° Southeast 361 415 35,000  Level Miami Center
11:48AM 23.2017 -73.6539 114° Southeast 361 415 35,000  Level Miami Center
11:49AM 23.1494 -73.5558 120° Southeast 361 415 35,000  Level Miami Center
11:50AM 23.1011 -73.4578 118° Southeast 361 415 35,000  Level Miami Center
11:51AM 23.0572 -73.3597 116° Southeast 361 415 35,000  Level Miami Center
11:52AM 23.0089 -73.2594 118° Southeast 361 415 35,000  Level Miami Center
11:53AM 22.9606 -73.1639 119° Southeast 361 415 35,000  Level Miami Center
11:54AM 22.9122 -73.0636 118° Southeast 361 415 35,000  Level Miami Center
11:55AM 22.8658 -72.9683 118° Southeast 361 415 35,000  Level Miami Center
11:56AM 22.8264 -72.8906 119° Southeast 361 415 35,000  Level Miami Center
11:57AM 22.7689 -72.7708 117° Southeast 366 421 35,000  Level Miami Center
11:58AM 22.7200 -72.6711 118° Southeast 366 421 35,000  Level Miami Center
11:59AM 22.6736 -72.5736 117° Southeast 361 415 35,000  Level Miami Center
12:00PM 22.6267 -72.4739 117° Southeast 366 421 35,000  Level Miami Center
12:01PM 22.5761 -72.3789 120° Southeast 361 415 35,000  Level Miami Center
12:02PM 22.5292 -72.2794 117° Southeast 361 415 35,000  Level Miami Center
12:03PM 22.4844 -72.1844 117° Southeast 361 415 35,000  Level Miami Center
12:04PM 22.4375 -72.0850 117° Southeast 361 415 35,000  Level Miami Center
12:05PM 22.3886 -71.9903 119° Southeast 361 415 35,000  Level Miami Center
12:06PM 22.3417 -71.8956 118° Southeast 361 415 35,000  Level Miami Center
12:07PM 22.2925 -71.7986 119° Southeast 361 415 35,000  Level Miami Center
12:08PM 22.2456 -71.7042 118° Southeast 361 415 35,000  Level Miami Center
12:09PM 22.2008 -71.6117 118° Southeast 361 415 35,000  Level Miami Center
12:10PM 22.1514 -71.5153 119° Southeast 361 415 35,000  Level Miami Center
12:11PM 22.1042 -71.4186 118° Southeast 361 415 35,000  Level Miami Center
12:12PM 22.0547 -71.3222 119° Southeast 361 415 35,000  Level Miami Center
12:13PM 22.0075 -71.2281 118° Southeast 361 415 35,000  Level Miami Center
12:14PM 21.9600 -71.1317 118° Southeast 361 415 35,000  Level Miami Center
12:15PM 21.9106 -71.0353 119° Southeast 361 415 35,000  Level Miami Center
12:16PM 21.8653 -70.9411 117° Southeast 361 415 35,000  Level Miami Center
12:17PM 21.8178 -70.8450 118° Southeast 361 415 35,000  Level Miami Center
12:18PM 21.7614 -70.7428 121° Southeast 361 415 35,000  Level Miami Center
12:19PM 21.7139 -70.6467 118° Southeast 361 415 35,000  Level Miami Center
12:20PM 21.6661 -70.5531 119° Southeast 361 415 35,000  Level Miami Center
12:21PM 21.6206 -70.4592 118° Southeast 361 415 35,000  Level Miami Center
12:22PM 21.5706 -70.3636 119° Southeast 361 415 35,000  Level Miami Center
12:23PM 21.5250 -70.2700 118° Southeast 361 415 35,000  Level Miami Center
12:24PM 21.4750 -70.1767 120° Southeast 356 410 35,000  Level Miami Center
12:25PM 21.4292 -70.0833 118° Southeast 361 415 35,000  Level Miami Center
12:26PM 21.3814 -69.9878 118° Southeast 361 415 35,000  Level Miami Center
12:27PM 21.3333 -69.8922 118° Southeast 361 415 35,000  Level Miami Center
12:28PM 21.2831 -69.7992 120° Southeast 361 415 35,000  Level Miami Center
12:29PM 21.2350 -69.7061 119° Southeast 361 415 35,000  Level Miami Center
12:30PM 21.1869 -69.6131 119° Southeast 361 415 35,000  Level Miami Center
12:31PM 21.1428 -69.5200 117° Southeast 361 415 35,000  Level Miami Center
12:32PM 21.0947 -69.4250 118° Southeast 361 415 35,000  Level Miami Center
12:33PM 21.0464 -69.3322 119° Southeast 361 415 35,000  Level Miami Center
12:34PM 20.9958 -69.2375 120° Southeast 361 415 35,000  Level Miami Center
12:35PM 20.9456 -69.1450 120° Southeast 361 415 35,000  Level Miami Center
12:36PM 20.8969 -69.0525 119° Southeast 361 415 35,000  Level Miami Center
12:37PM 20.8486 -68.9578 119° Southeast 361 415 35,000  Level Miami Center
12:38PM 20.8022 -68.8650 118° Southeast 361 415 35,000  Level Miami Center
12:39PM 20.7514 -68.7686 119° Southeast 361 415 35,000  Level Miami Center
12:40PM 20.7047 -68.6739 118° Southeast 361 415 35,000  Level Miami Center
12:41PM 20.6558 -68.5794 119° Southeast 361 415 35,000  Level Miami Center
12:42PM 20.6053 -68.4875 120° Southeast 361 415 35,000  Level Miami Center
12:43PM 20.5586 -68.3953 118° Southeast 361 415 35,000  Level Miami Center
12:44PM 20.5172 -68.3228 121° Southeast 361 415 35,000  Level Miami Center
12:45PM 20.4569 -68.2117 120° Southeast 361 415 35,000  Level Miami Center
12:46PM 20.4100 -68.1197 119° Southeast 356 410 35,000  Level Miami Center
12:47PM 20.3611 -68.0258 119° Southeast 356 410 35,000  Level Miami Center
12:48PM 20.3142 -67.9342 119° Southeast 361 415 35,000  Level Miami Center
12:49PM 20.2631 -67.8425 121° Southeast 361 415 35,000  Level Miami Center
12:49PM 20.2333 -67.7833 118° Southeast 360 414 35,000  Level San Juan Center
12:50PM 20.1833 -67.7000 123° Southeast 360 414 35,000  Level San Juan Center
12:51PM 20.1167 -67.6167 130° Southeast 350 403 35,000  Level San Juan Center
12:52PM 20.0833 -67.5167 110° East 350 403 35,000  Level San Juan Center
12:53PM 20.0333 -67.4333 123° Southeast 350 403 35,000  Level San Juan Center
12:54PM 19.9833 -67.3333 118° Southeast 350 403 35,000  Level San Juan Center
12:55PM 19.9333 -67.2500 123° Southeast 350 403 35,000  Level San Juan Center
12:56PM 19.8833 -67.1500 118° Southeast 350 403 35,000  Level San Juan Center
12:57PM 19.8333 -67.0667 123° Southeast 350 403 35,000  Level San Juan Center
12:58PM 19.7833 -66.9833 123° Southeast 350 403 35,000  Level San Juan Center
12:59PM 19.7333 -66.8833 118° Southeast 350 403 35,000  Level San Juan Center
01:00PM 19.6833 -66.8000 122° Southeast 350 403 35,000  Level San Juan Center
01:01PM 19.6333 -66.7167 122° Southeast 350 403 35,000  Level San Juan Center
01:02PM 19.5833 -66.6167 118° Southeast 350 403 35,000  Level San Juan Center
01:03PM 19.5500 -66.5333 113° Southeast 360 414 35,000  Level San Juan Center
01:04PM 19.5000 -66.4333 118° Southeast 350 403 35,000  Level San Juan Center
01:05PM 19.4500 -66.3500 122° Southeast 350 403 35,000  Level San Juan Center
01:06PM 19.4000 -66.2667 122° Southeast 350 403 35,000  Level San Juan Center
01:07PM 19.3500 -66.1667 118° Southeast 350 403 35,000  Level San Juan Center
01:08PM 19.3000 -66.0833 122° Southeast 350 403 35,000 -300 Level San Juan Center
01:09PM 19.2500 -65.9833 118° Southeast 350 403 34,400 -1,380 Descending San Juan Center
01:10PM 19.2000 -65.9000 122° Southeast 370 426 32,300 -2,100 Descending San Juan Center
01:11PM 19.1333 -65.8000 125° Southeast 370 426 30,200 -2,220 Descending San Juan Center
01:12PM 19.0833 -65.7000 118° Southeast 370 426 27,900 -2,460 Descending San Juan Center
01:13PM 19.0167 -65.6167 130° Southeast 370 426 25,300 -2,640 Descending San Juan Center
01:14PM 18.9500 -65.5333 130° Southeast 370 426 22,700 -2,640 Descending San Juan Center
01:15PM 18.8833 -65.4500 130° Southeast 360 414 20,000 -2,580 Descending San Juan Center
01:16PM 18.8333 -65.3500 118° Southeast 340 391 17,500 -2,640 Descending San Juan Center
01:17PM 18.7833 -65.2667 122° Southeast 330 380 14,800 -2,640 Descending San Juan Center
01:18PM 18.7333 -65.2000 128° Southeast 320 368 12,200 -2,400 Descending San Juan Center
01:19PM 18.7000 -65.1167 113° Southeast 300 345 10,000 -2,100 Descending San Juan Center
01:20PM 18.6500 -65.0500 128° Southeast 270 311 8,000 -2,040 Descending San Juan Center
01:21PM 18.6167 -64.9833 118° Southeast 260 299 6,000 -2,100 Descending San Juan Center
01:22PM 18.5667 -64.9167 128° Southeast 260 299 3,900 -1,380 Descending San Juan Center
01:23PM 18.5333 -64.8500 118° Southeast 230 265 3,300 -300 Descending San Juan Center
01:24PM 18.5167 -64.8000 109° East 200 230 3,300  Level San Juan Center
01:25PM 18.4833 -64.7500 125° Southeast 190 219 3,300  Level San Juan Center
01:26PM 18.4667 -64.7000 109° East 170 196 3,300  Level San Juan Center
01:27PM 18.4667 -64.6667 90° East 140 161 3,300 -420 Level San Juan Center
01:28PM 18.4500 -64.6333 118° Southeast 120 138 2,500 -840 Descending San Juan Center
01:29PM 18.4167 -64.6167 155° Southeast 140 161 1,700 -840 Descending San Juan Center
01:31PM 18.4333 -64.5333 118° Southeast  Level FlightAware Approximate
01:38PM 18.4448 -64.5430 118° Southeast  Level Estimated
01:39PM 18.4448 -64.5430 118° Southeast  Level Estimated